sensor_id;sensor_type;location;lat;lon;timestamp;temperature;humidity
63013;DHT22;62113;45.624;11.700;2023-04-25T00:00:07;16.40;63.90
63013;DHT22;62113;45.624;11.700;2023-04-25T00:02:33;16.40;64.00
63013;DHT22;62113;45.624;11.700;2023-04-25T00:05:01;16.40;63.90
63013;DHT22;62113;45.624;11.700;2023-04-25T00:07:27;16.40;63.90
63013;DHT22;62113;45.624;11.700;2023-04-25T00:09:52;16.40;64.00
63013;DHT22;62113;45.624;11.700;2023-04-25T00:12:18;16.40;63.90
63013;DHT22;62113;45.624;11.700;2023-04-25T00:14:44;16.40;63.90
63013;DHT22;62113;45.624;11.700;2023-04-25T00:17:10;16.40;64.00
63013;DHT22;62113;45.624;11.700;2023-04-25T00:19:36;16.30;64.10
63013;DHT22;62113;45.624;11.700;2023-04-25T00:22:03;16.30;64.10
63013;DHT22;62113;45.624;11.700;2023-04-25T00:24:29;16.30;64.30
63013;DHT22;62113;45.624;11.700;2023-04-25T00:26:55;16.30;64.20
63013;DHT22;62113;45.624;11.700;2023-04-25T00:29:20;16.30;64.20
63013;DHT22;62113;45.624;11.700;2023-04-25T00:31:46;16.30;64.30
63013;DHT22;62113;45.624;11.700;2023-04-25T00:34:11;16.30;64.20
63013;DHT22;62113;45.624;11.700;2023-04-25T00:36:37;16.30;64.20
63013;DHT22;62113;45.624;11.700;2023-04-25T00:39:03;16.30;64.20
63013;DHT22;62113;45.624;11.700;2023-04-25T00:41:30;16.30;64.20
63013;DHT22;62113;45.624;11.700;2023-04-25T00:43:56;16.30;64.30
63013;DHT22;62113;45.624;11.700;2023-04-25T00:46:22;16.20;64.20
63013;DHT22;62113;45.624;11.700;2023-04-25T00:48:47;16.20;64.30
63013;DHT22;62113;45.624;11.700;2023-04-25T00:51:19;16.20;64.30
63013;DHT22;62113;45.624;11.700;2023-04-25T00:53:46;16.20;64.30
63013;DHT22;62113;45.624;11.700;2023-04-25T00:56:13;16.20;64.40
63013;DHT22;62113;45.624;11.700;2023-04-25T00:58:40;16.20;64.40
63013;DHT22;62113;45.624;11.700;2023-04-25T01:01:06;16.20;64.50
63013;DHT22;62113;45.624;11.700;2023-04-25T01:03:34;16.10;64.50
63013;DHT22;62113;45.624;11.700;2023-04-25T01:06:01;16.20;64.60
63013;DHT22;62113;45.624;11.700;2023-04-25T01:08:28;16.20;64.70
63013;DHT22;62113;45.624;11.700;2023-04-25T01:10:53;16.10;64.70
63013;DHT22;62113;45.624;11.700;2023-04-25T01:13:19;16.20;64.70
63013;DHT22;62113;45.624;11.700;2023-04-25T01:15:45;16.10;64.80
63013;DHT22;62113;45.624;11.700;2023-04-25T01:18:11;16.10;64.80
63013;DHT22;62113;45.624;11.700;2023-04-25T01:20:38;16.10;64.90
63013;DHT22;62113;45.624;11.700;2023-04-25T01:23:06;16.10;65.00
63013;DHT22;62113;45.624;11.700;2023-04-25T01:25:31;16.10;64.90
63013;DHT22;62113;45.624;11.700;2023-04-25T01:27:58;16.10;64.90
63013;DHT22;62113;45.624;11.700;2023-04-25T01:30:28;16.10;64.90
63013;DHT22;62113;45.624;11.700;2023-04-25T01:32:57;16.10;64.90
63013;DHT22;62113;45.624;11.700;2023-04-25T01:35:24;16.10;64.90
63013;DHT22;62113;45.624;11.700;2023-04-25T01:37:51;16.00;64.90
63013;DHT22;62113;45.624;11.700;2023-04-25T01:40:17;16.00;65.10
63013;DHT22;62113;45.624;11.700;2023-04-25T01:42:45;16.00;64.90
63013;DHT22;62113;45.624;11.700;2023-04-25T01:45:11;16.00;64.90
63013;DHT22;62113;45.624;11.700;2023-04-25T01:47:38;16.00;64.90
63013;DHT22;62113;45.624;11.700;2023-04-25T01:50:06;15.90;65.00
63013;DHT22;62113;45.624;11.700;2023-04-25T01:52:32;15.90;65.00
63013;DHT22;62113;45.624;11.700;2023-04-25T01:55:00;15.90;65.00
63013;DHT22;62113;45.624;11.700;2023-04-25T01:57:26;15.90;65.00
63013;DHT22;62113;45.624;11.700;2023-04-25T01:59:58;15.90;65.00
63013;DHT22;62113;45.624;11.700;2023-04-25T02:02:24;15.90;65.00
63013;DHT22;62113;45.624;11.700;2023-04-25T02:04:50;15.90;65.00
63013;DHT22;62113;45.624;11.700;2023-04-25T02:07:16;15.80;65.00
63013;DHT22;62113;45.624;11.700;2023-04-25T02:09:41;15.90;65.10
63013;DHT22;62113;45.624;11.700;2023-04-25T02:12:09;15.90;65.00
63013;DHT22;62113;45.624;11.700;2023-04-25T02:14:35;15.90;65.00
63013;DHT22;62113;45.624;11.700;2023-04-25T02:17:00;15.90;65.00
63013;DHT22;62113;45.624;11.700;2023-04-25T02:19:26;15.90;65.00
63013;DHT22;62113;45.624;11.700;2023-04-25T02:21:51;15.90;64.90
63013;DHT22;62113;45.624;11.700;2023-04-25T02:24:17;15.90;65.00
63013;DHT22;62113;45.624;11.700;2023-04-25T02:26:43;16.00;64.90
63013;DHT22;62113;45.624;11.700;2023-04-25T02:29:09;16.00;64.80
63013;DHT22;62113;45.624;11.700;2023-04-25T02:31:35;16.00;64.70
63013;DHT22;62113;45.624;11.700;2023-04-25T02:34:01;15.90;64.70
63013;DHT22;62113;45.624;11.700;2023-04-25T02:36:26;16.00;64.70
63013;DHT22;62113;45.624;11.700;2023-04-25T02:38:52;16.00;64.70
63013;DHT22;62113;45.624;11.700;2023-04-25T02:41:17;16.00;64.70
63013;DHT22;62113;45.624;11.700;2023-04-25T02:43:43;16.00;64.50
63013;DHT22;62113;45.624;11.700;2023-04-25T02:46:08;16.00;64.50
63013;DHT22;62113;45.624;11.700;2023-04-25T02:48:35;16.00;64.40
63013;DHT22;62113;45.624;11.700;2023-04-25T02:51:00;16.00;64.30
63013;DHT22;62113;45.624;11.700;2023-04-25T02:53:26;16.00;64.20
63013;DHT22;62113;45.624;11.700;2023-04-25T02:55:51;15.90;63.70
63013;DHT22;62113;45.624;11.700;2023-04-25T02:58:18;15.90;63.90
63013;DHT22;62113;45.624;11.700;2023-04-25T03:00:43;15.80;63.90
63013;DHT22;62113;45.624;11.700;2023-04-25T03:03:09;15.80;63.80
63013;DHT22;62113;45.624;11.700;2023-04-25T03:05:35;15.80;63.60
63013;DHT22;62113;45.624;11.700;2023-04-25T03:08:00;15.80;63.70
63013;DHT22;62113;45.624;11.700;2023-04-25T03:10:26;15.70;63.80
63013;DHT22;62113;45.624;11.700;2023-04-25T03:12:51;15.70;63.70
63013;DHT22;62113;45.624;11.700;2023-04-25T03:15:17;15.70;63.60
63013;DHT22;62113;45.624;11.700;2023-04-25T03:17:44;15.70;63.60
63013;DHT22;62113;45.624;11.700;2023-04-25T03:20:10;15.70;63.60
63013;DHT22;62113;45.624;11.700;2023-04-25T03:22:36;15.70;63.80
63013;DHT22;62113;45.624;11.700;2023-04-25T03:25:01;15.80;63.80
63013;DHT22;62113;45.624;11.700;2023-04-25T03:27:27;15.80;63.80
63013;DHT22;62113;45.624;11.700;2023-04-25T03:29:53;15.80;63.80
63013;DHT22;62113;45.624;11.700;2023-04-25T03:32:18;15.90;63.80
63013;DHT22;62113;45.624;11.700;2023-04-25T03:34:44;15.90;63.60
63013;DHT22;62113;45.624;11.700;2023-04-25T03:37:09;15.90;63.40
63013;DHT22;62113;45.624;11.700;2023-04-25T03:39:35;15.90;63.40
63013;DHT22;62113;45.624;11.700;2023-04-25T03:42:01;15.90;63.10
63013;DHT22;62113;45.624;11.700;2023-04-25T03:44:28;15.90;62.90
63013;DHT22;62113;45.624;11.700;2023-04-25T03:46:53;15.80;63.00
63013;DHT22;62113;45.624;11.700;2023-04-25T03:49:19;15.70;63.30
63013;DHT22;62113;45.624;11.700;2023-04-25T03:51:44;15.70;63.30
63013;DHT22;62113;45.624;11.700;2023-04-25T03:54:10;15.70;63.40
63013;DHT22;62113;45.624;11.700;2023-04-25T03:56:36;15.70;63.50
63013;DHT22;62113;45.624;11.700;2023-04-25T03:59:01;15.60;63.40
63013;DHT22;62113;45.624;11.700;2023-04-25T04:01:27;15.60;63.60
63013;DHT22;62113;45.624;11.700;2023-04-25T04:03:53;15.50;63.70
63013;DHT22;62113;45.624;11.700;2023-04-25T04:06:18;15.60;63.80
63013;DHT22;62113;45.624;11.700;2023-04-25T04:08:46;15.60;63.90
63013;DHT22;62113;45.624;11.700;2023-04-25T04:11:11;15.60;63.70
63013;DHT22;62113;45.624;11.700;2023-04-25T04:13:37;15.60;63.70
63013;DHT22;62113;45.624;11.700;2023-04-25T04:16:03;15.70;63.80
63013;DHT22;62113;45.624;11.700;2023-04-25T04:18:29;15.70;63.90
63013;DHT22;62113;45.624;11.700;2023-04-25T04:20:55;15.70;64.00
63013;DHT22;62113;45.624;11.700;2023-04-25T04:23:23;15.80;64.00
63013;DHT22;62113;45.624;11.700;2023-04-25T04:25:49;15.80;64.00
63013;DHT22;62113;45.624;11.700;2023-04-25T04:28:14;15.80;64.10
63013;DHT22;62113;45.624;11.700;2023-04-25T04:30:41;15.80;64.00
63013;DHT22;62113;45.624;11.700;2023-04-25T04:33:08;15.90;64.20
63013;DHT22;62113;45.624;11.700;2023-04-25T04:35:34;15.90;64.30
63013;DHT22;62113;45.624;11.700;2023-04-25T04:38:00;15.90;64.40
63013;DHT22;62113;45.624;11.700;2023-04-25T04:40:25;15.90;64.50
63013;DHT22;62113;45.624;11.700;2023-04-25T04:42:51;15.90;64.60
63013;DHT22;62113;45.624;11.700;2023-04-25T04:45:18;15.90;64.80
63013;DHT22;62113;45.624;11.700;2023-04-25T04:47:44;15.90;65.10
63013;DHT22;62113;45.624;11.700;2023-04-25T04:50:11;15.90;65.10
63013;DHT22;62113;45.624;11.700;2023-04-25T04:52:37;15.90;65.30
63013;DHT22;62113;45.624;11.700;2023-04-25T04:55:04;15.90;65.50
63013;DHT22;62113;45.624;11.700;2023-04-25T04:57:31;15.90;65.60
63013;DHT22;62113;45.624;11.700;2023-04-25T04:59:58;15.90;65.80
63013;DHT22;62113;45.624;11.700;2023-04-25T05:02:25;15.90;65.80
63013;DHT22;62113;45.624;11.700;2023-04-25T05:04:51;15.80;66.00
63013;DHT22;62113;45.624;11.700;2023-04-25T05:07:17;15.80;65.80
63013;DHT22;62113;45.624;11.700;2023-04-25T05:09:43;15.70;65.90
63013;DHT22;62113;45.624;11.700;2023-04-25T05:12:09;15.70;66.00
63013;DHT22;62113;45.624;11.700;2023-04-25T05:14:34;15.70;66.20
63013;DHT22;62113;45.624;11.700;2023-04-25T05:17:00;15.80;66.40
63013;DHT22;62113;45.624;11.700;2023-04-25T05:19:26;15.70;66.50
63013;DHT22;62113;45.624;11.700;2023-04-25T05:21:52;15.70;66.70
63013;DHT22;62113;45.624;11.700;2023-04-25T05:24:17;15.70;66.90
63013;DHT22;62113;45.624;11.700;2023-04-25T05:26:43;15.70;66.90
63013;DHT22;62113;45.624;11.700;2023-04-25T05:29:08;15.70;66.90
63013;DHT22;62113;45.624;11.700;2023-04-25T05:31:35;15.70;67.10
63013;DHT22;62113;45.624;11.700;2023-04-25T05:34:01;15.70;67.30
63013;DHT22;62113;45.624;11.700;2023-04-25T05:36:27;15.70;67.40
63013;DHT22;62113;45.624;11.700;2023-04-25T05:38:53;15.70;67.50
63013;DHT22;62113;45.624;11.700;2023-04-25T05:41:18;15.70;67.70
63013;DHT22;62113;45.624;11.700;2023-04-25T05:43:44;15.70;67.50
63013;DHT22;62113;45.624;11.700;2023-04-25T05:46:12;15.70;67.60
63013;DHT22;62113;45.624;11.700;2023-04-25T05:48:38;15.70;67.60
63013;DHT22;62113;45.624;11.700;2023-04-25T05:51:04;15.70;67.70
63013;DHT22;62113;45.624;11.700;2023-04-25T05:53:30;15.70;67.70
63013;DHT22;62113;45.624;11.700;2023-04-25T05:55:55;15.70;67.70
63013;DHT22;62113;45.624;11.700;2023-04-25T05:58:21;15.80;67.70
63013;DHT22;62113;45.624;11.700;2023-04-25T06:00:47;15.80;67.80
63013;DHT22;62113;45.624;11.700;2023-04-25T06:03:13;15.80;67.80
63013;DHT22;62113;45.624;11.700;2023-04-25T06:05:42;15.80;67.80
63013;DHT22;62113;45.624;11.700;2023-04-25T06:08:08;15.80;67.80
63013;DHT22;62113;45.624;11.700;2023-04-25T06:10:33;15.80;67.70
63013;DHT22;62113;45.624;11.700;2023-04-25T06:12:59;15.80;67.80
63013;DHT22;62113;45.624;11.700;2023-04-25T06:15:24;15.80;67.80
63013;DHT22;62113;45.624;11.700;2023-04-25T06:17:50;15.80;67.80
63013;DHT22;62113;45.624;11.700;2023-04-25T06:20:16;15.80;67.80
63013;DHT22;62113;45.624;11.700;2023-04-25T06:22:41;15.80;67.80
63013;DHT22;62113;45.624;11.700;2023-04-25T06:25:07;15.80;67.80
63013;DHT22;62113;45.624;11.700;2023-04-25T06:27:35;15.80;67.80
63013;DHT22;62113;45.624;11.700;2023-04-25T06:30:01;15.80;67.80
63013;DHT22;62113;45.624;11.700;2023-04-25T06:32:27;15.70;67.80
63013;DHT22;62113;45.624;11.700;2023-04-25T06:34:55;15.70;67.90
63013;DHT22;62113;45.624;11.700;2023-04-25T06:37:20;15.70;67.90
63013;DHT22;62113;45.624;11.700;2023-04-25T06:39:46;15.80;68.00
63013;DHT22;62113;45.624;11.700;2023-04-25T06:42:11;15.80;68.00
63013;DHT22;62113;45.624;11.700;2023-04-25T06:44:37;15.70;68.10
63013;DHT22;62113;45.624;11.700;2023-04-25T06:47:03;15.70;68.10
63013;DHT22;62113;45.624;11.700;2023-04-25T06:49:28;15.70;68.10
63013;DHT22;62113;45.624;11.700;2023-04-25T06:51:54;15.70;68.00
63013;DHT22;62113;45.624;11.700;2023-04-25T06:54:19;15.70;67.90
63013;DHT22;62113;45.624;11.700;2023-04-25T06:56:45;15.70;67.80
63013;DHT22;62113;45.624;11.700;2023-04-25T06:59:11;15.70;67.80
63013;DHT22;62113;45.624;11.700;2023-04-25T07:01:37;15.60;67.80
63013;DHT22;62113;45.624;11.700;2023-04-25T07:04:02;15.60;67.80
63013;DHT22;62113;45.624;11.700;2023-04-25T07:06:28;15.60;67.70
63013;DHT22;62113;45.624;11.700;2023-04-25T07:08:54;15.60;67.80
63013;DHT22;62113;45.624;11.700;2023-04-25T07:11:21;15.50;67.80
63013;DHT22;62113;45.624;11.700;2023-04-25T07:13:46;15.50;67.70
63013;DHT22;62113;45.624;11.700;2023-04-25T07:16:12;15.50;67.80
63013;DHT22;62113;45.624;11.700;2023-04-25T07:18:37;15.50;67.80
63013;DHT22;62113;45.624;11.700;2023-04-25T07:21:03;15.50;67.80
63013;DHT22;62113;45.624;11.700;2023-04-25T07:23:28;15.50;67.80
63013;DHT22;62113;45.624;11.700;2023-04-25T07:25:55;15.50;67.80
63013;DHT22;62113;45.624;11.700;2023-04-25T07:28:21;15.50;67.80
63013;DHT22;62113;45.624;11.700;2023-04-25T07:30:47;15.40;67.80
63013;DHT22;62113;45.624;11.700;2023-04-25T07:33:12;15.50;67.80
63013;DHT22;62113;45.624;11.700;2023-04-25T07:35:38;15.50;67.80
63013;DHT22;62113;45.624;11.700;2023-04-25T07:38:03;15.50;67.80
63013;DHT22;62113;45.624;11.700;2023-04-25T07:40:29;15.50;67.90
63013;DHT22;62113;45.624;11.700;2023-04-25T07:42:55;15.50;67.70
63013;DHT22;62113;45.624;11.700;2023-04-25T07:45:21;15.40;67.60
63013;DHT22;62113;45.624;11.700;2023-04-25T07:47:46;15.30;67.60
63013;DHT22;62113;45.624;11.700;2023-04-25T07:50:12;15.30;67.80
63013;DHT22;62113;45.624;11.700;2023-04-25T07:52:37;15.30;67.90
63013;DHT22;62113;45.624;11.700;2023-04-25T07:55:03;15.30;68.10
63013;DHT22;62113;45.624;11.700;2023-04-25T07:57:29;15.30;68.20
63013;DHT22;62113;45.624;11.700;2023-04-25T07:59:55;15.30;68.20
63013;DHT22;62113;45.624;11.700;2023-04-25T08:02:21;15.30;68.20
63013;DHT22;62113;45.624;11.700;2023-04-25T08:04:46;15.20;68.30
63013;DHT22;62113;45.624;11.700;2023-04-25T08:07:12;15.20;68.30
63013;DHT22;62113;45.624;11.700;2023-04-25T08:09:38;15.20;68.40
63013;DHT22;62113;45.624;11.700;2023-04-25T08:12:04;15.00;69.00
63013;DHT22;62113;45.624;11.700;2023-04-25T08:14:30;14.90;69.00
63013;DHT22;62113;45.624;11.700;2023-04-25T08:17:01;14.80;69.00
63013;DHT22;62113;45.624;11.700;2023-04-25T08:19:29;14.90;69.30
63013;DHT22;62113;45.624;11.700;2023-04-25T08:21:55;14.80;69.40
63013;DHT22;62113;45.624;11.700;2023-04-25T08:24:21;14.80;69.70
63013;DHT22;62113;45.624;11.700;2023-04-25T08:26:47;14.80;70.20
63013;DHT22;62113;45.624;11.700;2023-04-25T08:29:13;14.90;69.90
63013;DHT22;62113;45.624;11.700;2023-04-25T08:31:38;15.00;69.70
63013;DHT22;62113;45.624;11.700;2023-04-25T08:34:04;15.00;69.80
63013;DHT22;62113;45.624;11.700;2023-04-25T08:36:29;15.00;70.10
63013;DHT22;62113;45.624;11.700;2023-04-25T08:38:57;14.90;70.90
63013;DHT22;62113;45.624;11.700;2023-04-25T08:41:23;14.80;71.00
63013;DHT22;62113;45.624;11.700;2023-04-25T08:43:49;14.80;70.80
63013;DHT22;62113;45.624;11.700;2023-04-25T08:46:18;14.80;70.80
63013;DHT22;62113;45.624;11.700;2023-04-25T08:48:45;14.80;70.90
63013;DHT22;62113;45.624;11.700;2023-04-25T08:51:18;14.90;71.50
63013;DHT22;62113;45.624;11.700;2023-04-25T08:53:49;15.10;71.40
63013;DHT22;62113;45.624;11.700;2023-04-25T08:56:16;15.20;71.10
63013;DHT22;62113;45.624;11.700;2023-04-25T08:58:51;15.30;71.00
63013;DHT22;62113;45.624;11.700;2023-04-25T09:01:18;15.50;71.00
63013;DHT22;62113;45.624;11.700;2023-04-25T09:03:46;15.60;70.70
63013;DHT22;62113;45.624;11.700;2023-04-25T09:06:13;15.70;70.50
63013;DHT22;62113;45.624;11.700;2023-04-25T09:08:38;15.80;70.20
63013;DHT22;62113;45.624;11.700;2023-04-25T09:11:06;16.00;70.20
63013;DHT22;62113;45.624;11.700;2023-04-25T09:13:32;16.10;70.00
63013;DHT22;62113;45.624;11.700;2023-04-25T09:15:58;16.30;69.50
63013;DHT22;62113;45.624;11.700;2023-04-25T09:18:24;16.60;69.30
63013;DHT22;62113;45.624;11.700;2023-04-25T09:20:51;16.90;69.10
63013;DHT22;62113;45.624;11.700;2023-04-25T09:23:19;17.20;66.10
63013;DHT22;62113;45.624;11.700;2023-04-25T09:25:47;17.40;65.70
63013;DHT22;62113;45.624;11.700;2023-04-25T09:28:13;17.70;65.90
63013;DHT22;62113;45.624;11.700;2023-04-25T09:30:39;18.00;65.00
63013;DHT22;62113;45.624;11.700;2023-04-25T09:33:09;18.30;65.10
63013;DHT22;62113;45.624;11.700;2023-04-25T09:35:40;18.70;64.80
63013;DHT22;62113;45.624;11.700;2023-04-25T09:38:13;19.10;64.30
63013;DHT22;62113;45.624;11.700;2023-04-25T09:40:43;19.30;63.00
63013;DHT22;62113;45.624;11.700;2023-04-25T09:43:30;19.70;60.30
63013;DHT22;62113;45.624;11.700;2023-04-25T09:45:55;19.80;59.20
63013;DHT22;62113;45.624;11.700;2023-04-25T09:48:27;19.90;58.90
63013;DHT22;62113;45.624;11.700;2023-04-25T09:51:08;19.90;58.70
63013;DHT22;62113;45.624;11.700;2023-04-25T09:53:36;19.90;57.10
63013;DHT22;62113;45.624;11.700;2023-04-25T09:56:05;19.90;56.50
63013;DHT22;62113;45.624;11.700;2023-04-25T09:58:32;19.90;55.70
63013;DHT22;62113;45.624;11.700;2023-04-25T10:01:01;19.90;56.40
63013;DHT22;62113;45.624;11.700;2023-04-25T10:03:30;20.00;55.00
63013;DHT22;62113;45.624;11.700;2023-04-25T10:05:59;19.80;53.40
63013;DHT22;62113;45.624;11.700;2023-04-25T10:08:31;19.80;54.30
63013;DHT22;62113;45.624;11.700;2023-04-25T10:10:59;19.90;54.90
63013;DHT22;62113;45.624;11.700;2023-04-25T10:13:25;19.90;52.80
63013;DHT22;62113;45.624;11.700;2023-04-25T10:15:52;19.80;52.60
63013;DHT22;62113;45.624;11.700;2023-04-25T10:18:18;19.60;53.60
63013;DHT22;62113;45.624;11.700;2023-04-25T10:20:45;19.40;52.80
63013;DHT22;62113;45.624;11.700;2023-04-25T10:23:14;19.40;53.70
63013;DHT22;62113;45.624;11.700;2023-04-25T10:25:41;19.40;53.90
63013;DHT22;62113;45.624;11.700;2023-04-25T10:28:07;19.40;54.00
63013;DHT22;62113;45.624;11.700;2023-04-25T10:30:33;19.40;54.40
63013;DHT22;62113;45.624;11.700;2023-04-25T10:32:59;19.20;52.80
63013;DHT22;62113;45.624;11.700;2023-04-25T10:35:27;19.00;53.40
63013;DHT22;62113;45.624;11.700;2023-04-25T10:38:09;18.90;54.90
63013;DHT22;62113;45.624;11.700;2023-04-25T10:40:36;18.70;54.30
63013;DHT22;62113;45.624;11.700;2023-04-25T10:43:36;18.70;54.60
63013;DHT22;62113;45.624;11.700;2023-04-25T10:46:27;18.60;55.20
63013;DHT22;62113;45.624;11.700;2023-04-25T10:48:54;18.60;54.60
63013;DHT22;62113;45.624;11.700;2023-04-25T10:51:23;18.60;55.70
63013;DHT22;62113;45.624;11.700;2023-04-25T10:56:21;18.70;55.50
63013;DHT22;62113;45.624;11.700;2023-04-25T10:58:48;18.80;56.50
63013;DHT22;62113;45.624;11.700;2023-04-25T11:01:24;18.80;53.80
63013;DHT22;62113;45.624;11.700;2023-04-25T11:03:57;18.80;54.40
63013;DHT22;62113;45.624;11.700;2023-04-25T11:09:12;19.00;55.30
63013;DHT22;62113;45.624;11.700;2023-04-25T11:11:41;18.90;55.20
63013;DHT22;62113;45.624;11.700;2023-04-25T11:14:07;19.00;55.00
63013;DHT22;62113;45.624;11.700;2023-04-25T11:16:32;19.10;55.50
63013;DHT22;62113;45.624;11.700;2023-04-25T11:18:58;19.20;54.10
63013;DHT22;62113;45.624;11.700;2023-04-25T11:21:26;19.20;54.40
63013;DHT22;62113;45.624;11.700;2023-04-25T11:23:54;19.20;53.80
63013;DHT22;62113;45.624;11.700;2023-04-25T11:26:19;19.30;54.10
63013;DHT22;62113;45.624;11.700;2023-04-25T11:28:45;19.20;53.40
63013;DHT22;62113;45.624;11.700;2023-04-25T11:31:12;19.10;53.30
63013;DHT22;62113;45.624;11.700;2023-04-25T11:33:38;18.80;53.80
63013;DHT22;62113;45.624;11.700;2023-04-25T11:36:04;18.70;55.20
63013;DHT22;62113;45.624;11.700;2023-04-25T11:38:30;18.70;55.40
63013;DHT22;62113;45.624;11.700;2023-04-25T11:40:56;18.70;55.70
63013;DHT22;62113;45.624;11.700;2023-04-25T11:43:22;18.80;55.50
63013;DHT22;62113;45.624;11.700;2023-04-25T11:45:49;18.90;55.10
63013;DHT22;62113;45.624;11.700;2023-04-25T11:48:16;19.00;54.80
63013;DHT22;62113;45.624;11.700;2023-04-25T11:50:41;19.00;55.50
63013;DHT22;62113;45.624;11.700;2023-04-25T11:53:07;19.00;55.30
63013;DHT22;62113;45.624;11.700;2023-04-25T11:55:34;18.90;55.00
63013;DHT22;62113;45.624;11.700;2023-04-25T11:58:00;18.90;55.10
63013;DHT22;62113;45.624;11.700;2023-04-25T12:00:27;18.90;55.30
63013;DHT22;62113;45.624;11.700;2023-04-25T12:02:54;19.00;55.70
63013;DHT22;62113;45.624;11.700;2023-04-25T12:05:24;19.00;55.20
63013;DHT22;62113;45.624;11.700;2023-04-25T12:07:51;19.00;54.30
63013;DHT22;62113;45.624;11.700;2023-04-25T12:10:17;18.90;54.20
63013;DHT22;62113;45.624;11.700;2023-04-25T12:12:46;18.70;53.50
63013;DHT22;62113;45.624;11.700;2023-04-25T12:17:49;18.70;54.50
63013;DHT22;62113;45.624;11.700;2023-04-25T12:20:24;18.70;54.40
63013;DHT22;62113;45.624;11.700;2023-04-25T12:22:52;18.80;54.20
63013;DHT22;62113;45.624;11.700;2023-04-25T12:25:38;19.00;54.00
63013;DHT22;62113;45.624;11.700;2023-04-25T12:31:02;19.20;53.00
63013;DHT22;62113;45.624;11.700;2023-04-25T12:33:37;19.40;52.40
63013;DHT22;62113;45.624;11.700;2023-04-25T12:36:04;19.60;52.90
63013;DHT22;62113;45.624;11.700;2023-04-25T12:38:41;19.70;53.10
63013;DHT22;62113;45.624;11.700;2023-04-25T12:41:08;19.70;52.50
63013;DHT22;62113;45.624;11.700;2023-04-25T12:43:33;19.70;52.30
63013;DHT22;62113;45.624;11.700;2023-04-25T12:45:59;19.60;51.20
63013;DHT22;62113;45.624;11.700;2023-04-25T12:48:25;19.30;52.30
63013;DHT22;62113;45.624;11.700;2023-04-25T12:50:51;19.10;53.60
63013;DHT22;62113;45.624;11.700;2023-04-25T12:53:21;19.00;54.10
63013;DHT22;62113;45.624;11.700;2023-04-25T12:55:47;18.70;53.70
63013;DHT22;62113;45.624;11.700;2023-04-25T12:58:15;18.40;54.60
63013;DHT22;62113;45.624;11.700;2023-04-25T13:00:40;18.20;54.80
63013;DHT22;62113;45.624;11.700;2023-04-25T13:03:06;18.10;55.20
63013;DHT22;62113;45.624;11.700;2023-04-25T13:05:32;17.90;55.40
63013;DHT22;62113;45.624;11.700;2023-04-25T13:07:57;17.80;56.00
63013;DHT22;62113;45.624;11.700;2023-04-25T13:10:23;17.80;56.10
63013;DHT22;62113;45.624;11.700;2023-04-25T13:12:49;17.70;56.30
63013;DHT22;62113;45.624;11.700;2023-04-25T13:15:14;17.70;56.70
63013;DHT22;62113;45.624;11.700;2023-04-25T13:17:41;17.70;57.10
63013;DHT22;62113;45.624;11.700;2023-04-25T13:20:08;17.80;57.60
63013;DHT22;62113;45.624;11.700;2023-04-25T13:22:35;17.90;57.70
63013;DHT22;62113;45.624;11.700;2023-04-25T13:25:04;18.00;58.00
63013;DHT22;62113;45.624;11.700;2023-04-25T13:27:31;18.00;58.40
63013;DHT22;62113;45.624;11.700;2023-04-25T13:29:58;18.10;58.50
63013;DHT22;62113;45.624;11.700;2023-04-25T13:32:24;18.10;58.70
63013;DHT22;62113;45.624;11.700;2023-04-25T13:34:51;18.10;58.80
63013;DHT22;62113;45.624;11.700;2023-04-25T13:37:17;18.10;59.10
63013;DHT22;62113;45.624;11.700;2023-04-25T13:39:42;18.20;59.30
63013;DHT22;62113;45.624;11.700;2023-04-25T13:42:08;18.10;59.50
63013;DHT22;62113;45.624;11.700;2023-04-25T13:44:33;18.20;59.60
63013;DHT22;62113;45.624;11.700;2023-04-25T13:46:59;18.20;59.60
63013;DHT22;62113;45.624;11.700;2023-04-25T13:49:26;18.20;59.70
63013;DHT22;62113;45.624;11.700;2023-04-25T13:51:51;18.20;59.80
63013;DHT22;62113;45.624;11.700;2023-04-25T13:54:17;18.30;59.90
63013;DHT22;62113;45.624;11.700;2023-04-25T13:56:43;18.30;60.00
63013;DHT22;62113;45.624;11.700;2023-04-25T13:59:08;18.30;59.80
63013;DHT22;62113;45.624;11.700;2023-04-25T14:01:34;18.30;60.00
63013;DHT22;62113;45.624;11.700;2023-04-25T14:04:01;18.30;59.90
63013;DHT22;62113;45.624;11.700;2023-04-25T14:06:29;18.30;59.80
63013;DHT22;62113;45.624;11.700;2023-04-25T14:08:54;18.30;59.70
63013;DHT22;62113;45.624;11.700;2023-04-25T14:11:20;18.30;59.50
63013;DHT22;62113;45.624;11.700;2023-04-25T14:13:46;18.30;59.50
63013;DHT22;62113;45.624;11.700;2023-04-25T14:16:12;18.40;59.50
63013;DHT22;62113;45.624;11.700;2023-04-25T14:18:38;18.30;59.40
63013;DHT22;62113;45.624;11.700;2023-04-25T14:21:04;18.30;59.30
63013;DHT22;62113;45.624;11.700;2023-04-25T14:23:30;18.30;59.40
63013;DHT22;62113;45.624;11.700;2023-04-25T14:25:55;18.30;59.50
63013;DHT22;62113;45.624;11.700;2023-04-25T14:28:21;18.20;59.60
63013;DHT22;62113;45.624;11.700;2023-04-25T14:30:47;18.20;59.80
63013;DHT22;62113;45.624;11.700;2023-04-25T14:33:12;18.20;59.90
63013;DHT22;62113;45.624;11.700;2023-04-25T14:35:39;18.20;60.10
63013;DHT22;62113;45.624;11.700;2023-04-25T14:38:05;18.20;60.30
63013;DHT22;62113;45.624;11.700;2023-04-25T14:40:31;18.20;60.40
63013;DHT22;62113;45.624;11.700;2023-04-25T14:42:56;18.20;60.50
63013;DHT22;62113;45.624;11.700;2023-04-25T14:45:22;18.20;60.50
63013;DHT22;62113;45.624;11.700;2023-04-25T14:47:47;18.30;60.70
63013;DHT22;62113;45.624;11.700;2023-04-25T14:50:13;18.40;60.80
63013;DHT22;62113;45.624;11.700;2023-04-25T14:52:39;18.50;60.90
63013;DHT22;62113;45.624;11.700;2023-04-25T14:55:04;18.50;60.90
63013;DHT22;62113;45.624;11.700;2023-04-25T14:57:32;18.70;61.00
63013;DHT22;62113;45.624;11.700;2023-04-25T14:59:57;18.70;61.10
63013;DHT22;62113;45.624;11.700;2023-04-25T15:02:24;18.90;60.80
63013;DHT22;62113;45.624;11.700;2023-04-25T15:04:49;19.00;60.40
63013;DHT22;62113;45.624;11.700;2023-04-25T15:07:15;19.10;60.10
63013;DHT22;62113;45.624;11.700;2023-04-25T15:09:41;19.20;59.60
63013;DHT22;62113;45.624;11.700;2023-04-25T15:12:07;19.20;59.40
63013;DHT22;62113;45.624;11.700;2023-04-25T15:14:33;19.30;59.10
63013;DHT22;62113;45.624;11.700;2023-04-25T15:16:59;19.40;58.40
63013;DHT22;62113;45.624;11.700;2023-04-25T15:19:25;19.40;57.40
63013;DHT22;62113;45.624;11.700;2023-04-25T15:21:51;19.40;56.00